Time;durP1;ratioP1;P1;durP2;ratioP2;P2;SDS_P1;SDS_P2;PMS_P1;PMS_P2;Temp;Humidity;BMP_temperature;BMP_pressure;BME280_temperature;BME280_humidity;BME280_pressure;Samples;Min_cycle;Max_cycle;Signal;HPM_P1;HPM_P2
2023/07/05 00:00:06;;;;;;;4.60;2.40;;;;;;;19.46;99.95;99919.69;5028000;28;20204;-67
2023/07/05 00:02:32;;;;;;;6.50;2.97;;;;;;;19.33;100.00;99920.06;5021638;28;20200;-68
2023/07/05 00:04:59;;;;;;;4.43;2.47;;;;;;;19.04;100.00;99918.22;5032409;28;20230;-67
2023/07/05 00:07:25;;;;;;;5.88;2.40;;;;;;;18.94;100.00;99919.41;5026791;28;20302;-67
2023/07/05 00:09:52;;;;;;;5.83;2.73;;;;;;;18.77;100.00;99932.41;5025721;28;20226;-67
2023/07/05 00:12:18;;;;;;;3.77;2.50;;;;;;;18.77;100.00;99908.25;5028494;28;20234;-67
2023/07/05 00:14:44;;;;;;;4.10;2.70;;;;;;;18.63;100.00;99864.84;5024089;28;20215;-67
2023/07/05 00:17:11;;;;;;;6.13;2.63;;;;;;;18.43;100.00;99851.97;5026099;28;20199;-67
2023/07/05 00:19:37;;;;;;;4.83;2.70;;;;;;;18.24;100.00;99856.03;5028583;28;20226;-67
2023/07/05 00:22:03;;;;;;;5.40;2.50;;;;;;;18.01;100.00;99864.66;5026509;28;20200;-67
2023/07/05 00:24:30;;;;;;;6.83;3.47;;;;;;;17.86;100.00;99863.25;5024833;28;20224;-66
2023/07/05 00:26:56;;;;;;;6.03;3.63;;;;;;;17.66;100.00;99861.06;5024499;28;20221;-66
2023/07/05 00:29:22;;;;;;;6.80;2.97;;;;;;;17.55;100.00;99860.41;5023510;28;20654;-66
2023/07/05 00:31:49;;;;;;;4.37;3.47;;;;;;;17.43;100.00;99863.38;5027198;28;20582;-67
2023/07/05 00:34:15;;;;;;;4.30;2.73;;;;;;;17.33;100.00;99862.72;5027867;28;20321;-66
2023/07/05 00:36:42;;;;;;;4.67;2.90;;;;;;;17.21;100.00;99853.16;5010240;28;20202;-66
2023/07/05 00:39:08;;;;;;;5.97;2.70;;;;;;;17.18;100.00;99850.53;5025958;28;20192;-66
2023/07/05 00:41:35;;;;;;;4.97;2.90;;;;;;;17.14;100.00;99846.16;5022670;28;20274;-66
2023/07/05 00:44:02;;;;;;;4.60;2.83;;;;;;;17.19;100.00;99851.41;5022084;28;20223;-66
2023/07/05 00:46:31;;;;;;;4.27;2.90;;;;;;;17.17;100.00;99856.78;5027913;28;20201;-66
2023/07/05 00:48:59;;;;;;;6.60;2.87;;;;;;;17.13;100.00;99859.56;5032556;28;20195;-66
2023/07/05 00:51:30;;;;;;;6.70;3.00;;;;;;;17.18;100.00;99845.19;5021379;28;20204;-66
2023/07/05 00:54:00;;;;;;;4.30;2.43;;;;;;;17.14;100.00;99838.13;5025492;28;20223;-66
2023/07/05 00:56:33;;;;;;;2.77;2.23;;;;;;;17.09;100.00;99823.09;5027486;28;20203;-66
2023/07/05 00:59:00;;;;;;;4.70;2.30;;;;;;;17.04;100.00;99814.28;5032739;28;20199;-66
2023/07/05 01:01:27;;;;;;;3.47;2.50;;;;;;;17.08;100.00;99816.00;5025161;28;20191;-66
2023/07/05 01:03:58;;;;;;;4.43;2.60;;;;;;;17.11;100.00;99814.13;5022503;28;20215;-66
2023/07/05 01:06:25;;;;;;;4.13;2.90;;;;;;;17.30;100.00;99824.44;5023234;28;20216;-66
2023/07/05 01:08:52;;;;;;;2.90;2.17;;;;;;;17.38;100.00;99827.81;5015359;28;20205;-66
2023/07/05 01:11:41;;;;;;;4.37;2.70;;;;;;;17.31;100.00;99828.88;5024163;28;20629;-66
2023/07/05 01:14:19;;;;;;;2.90;2.23;;;;;;;17.15;100.00;99823.84;5020189;28;20219;-66
2023/07/05 01:17:02;;;;;;;3.73;2.60;;;;;;;17.09;100.00;99812.41;5023076;28;20709;-67
2023/07/05 01:19:28;;;;;;;4.50;2.50;;;;;;;17.10;100.00;99819.50;5027146;28;20330;-66
2023/07/05 01:22:02;;;;;;;5.97;3.30;;;;;;;17.10;100.00;99817.72;5023906;28;20420;-66
2023/07/05 01:25:13;;;;;;;7.17;2.70;;;;;;;17.37;100.00;99810.84;5008433;28;21332;-66
2023/07/05 01:28:01;;;;;;;4.90;2.70;;;;;;;17.41;100.00;99817.91;5025623;28;20207;-67
2023/07/05 01:30:50;;;;;;;6.27;2.70;;;;;;;17.32;100.00;99822.59;5022220;28;20220;-66
2023/07/05 01:33:32;;;;;;;3.90;2.40;;;;;;;17.29;100.00;99820.88;5020206;28;20215;-66
2023/07/05 01:35:59;;;;;;;5.50;2.80;;;;;;;17.30;100.00;99819.94;5025854;28;20196;-66
2023/07/05 01:38:25;;;;;;;4.33;2.60;;;;;;;17.26;100.00;99810.25;5022720;28;20196;-66
2023/07/05 01:40:55;;;;;;;4.90;2.80;;;;;;;17.23;100.00;99799.59;5023041;28;20302;-66
2023/07/05 01:43:25;;;;;;;4.97;2.93;;;;;;;17.22;100.00;99803.19;5025048;28;20218;-67
2023/07/05 01:46:22;;;;;;;5.40;3.00;;;;;;;17.19;100.00;99795.22;5020482;28;20226;-66
2023/07/05 01:48:56;;;;;;;3.53;2.80;;;;;;;17.18;100.00;99790.78;5016809;28;20250;-66
2023/07/05 01:51:41;;;;;;;8.23;2.97;;;;;;;17.19;100.00;99798.75;5025235;28;20586;-66
2023/07/05 01:54:14;;;;;;;5.17;2.77;;;;;;;17.21;100.00;99801.41;5030696;28;20226;-66
2023/07/05 01:56:58;;;;;;;6.33;2.80;;;;;;;17.26;100.00;99812.91;5028496;28;20195;-66
2023/07/05 01:59:31;;;;;;;5.73;3.30;;;;;;;17.36;100.00;99802.88;5018023;28;20187;-66
2023/07/05 02:01:59;;;;;;;7.90;3.43;;;;;;;17.33;100.00;99808.28;5025163;28;20195;-66
2023/07/05 02:04:26;;;;;;;6.43;3.07;;;;;;;17.32;100.00;99810.09;5025525;28;20223;-66
2023/07/05 02:06:53;;;;;;;6.60;3.10;;;;;;;17.34;100.00;99810.06;5026344;28;20199;-67
2023/07/05 02:09:20;;;;;;;4.47;2.90;;;;;;;17.40;100.00;99823.28;5021436;28;20202;-66
2023/07/05 02:11:46;;;;;;;5.60;2.90;;;;;;;17.45;100.00;99810.66;5027759;28;20679;-67
2023/07/05 02:14:12;;;;;;;4.87;2.80;;;;;;;17.53;100.00;99816.72;5026639;28;20235;-67
2023/07/05 02:16:39;;;;;;;5.93;2.70;;;;;;;17.60;100.00;99810.28;5022291;28;21798;-67
2023/07/05 02:19:09;;;;;;;4.60;2.70;;;;;;;17.56;100.00;99805.94;5020874;28;20660;-67
2023/07/05 02:21:36;;;;;;;4.07;2.37;;;;;;;17.62;100.00;99804.94;5021889;28;20619;-65
2023/07/05 02:24:02;;;;;;;3.23;2.50;;;;;;;17.63;100.00;99807.56;5027069;28;20223;-66
2023/07/05 02:26:29;;;;;;;4.63;2.13;;;;;;;17.65;100.00;99791.47;5021849;28;20208;-67
2023/07/05 02:28:55;;;;;;;5.60;2.17;;;;;;;17.68;100.00;99788.75;5020883;28;20203;-66
2023/07/05 02:31:22;;;;;;;5.83;2.33;;;;;;;17.66;100.00;99796.78;5029544;28;20222;-66
2023/07/05 02:33:48;;;;;;;3.90;2.30;;;;;;;17.73;100.00;99793.06;5017241;28;20219;-64
2023/07/05 02:36:15;;;;;;;7.07;2.30;;;;;;;17.70;100.00;99789.56;5026810;28;20222;-67
2023/07/05 02:38:43;;;;;;;4.40;2.10;;;;;;;17.66;100.00;99786.06;5029541;28;20192;-66
2023/07/05 02:41:09;;;;;;;4.00;1.90;;;;;;;17.75;100.00;99787.66;5027676;28;20204;-67
2023/07/05 02:43:36;;;;;;;3.53;2.07;;;;;;;17.71;100.00;99776.16;5029461;28;20227;-65
2023/07/05 02:46:05;;;;;;;3.93;2.40;;;;;;;17.70;100.00;99776.19;5029010;28;20199;-66
2023/07/05 02:48:32;;;;;;;5.40;2.27;;;;;;;17.70;100.00;99778.88;5029809;28;20200;-66
2023/07/05 02:50:58;;;;;;;3.90;2.30;;;;;;;17.64;100.00;99773.63;5030570;28;20230;-67
2023/07/05 02:53:25;;;;;;;2.77;1.87;;;;;;;17.55;100.00;99775.59;5020937;28;20223;-66
2023/07/05 02:55:51;;;;;;;4.87;2.40;;;;;;;17.45;100.00;99759.81;5030523;28;20198;-67
2023/07/05 02:58:18;;;;;;;4.97;2.30;;;;;;;17.33;100.00;99755.66;5027633;28;20214;-67
2023/07/05 03:00:45;;;;;;;2.87;2.10;;;;;;;17.31;100.00;99744.09;5027578;28;20294;-67
2023/07/05 03:03:11;;;;;;;3.90;2.07;;;;;;;17.26;100.00;99723.72;5030340;28;20310;-64
2023/07/05 03:05:38;;;;;;;3.17;2.30;;;;;;;17.18;100.00;99722.06;5015129;28;20199;-67
2023/07/05 03:08:04;;;;;;;4.20;2.33;;;;;;;17.16;100.00;99718.56;5018159;28;20199;-67
2023/07/05 03:10:31;;;;;;;5.40;2.50;;;;;;;17.18;100.00;99713.16;5028270;28;20220;-66
2023/07/05 03:12:57;;;;;;;4.70;2.47;;;;;;;17.25;100.00;99733.53;5028631;28;20211;-64
2023/07/05 03:15:24;;;;;;;4.10;2.00;;;;;;;17.31;100.00;99736.06;5029424;28;20287;-66
2023/07/05 03:17:50;;;;;;;10.37;3.90;;;;;;;17.33;100.00;99736.91;5030998;28;20196;-66
2023/07/05 03:20:17;;;;;;;6.40;2.50;;;;;;;17.32;100.00;99747.66;5023144;28;20203;-67
2023/07/05 03:22:43;;;;;;;4.77;2.40;;;;;;;17.35;100.00;99751.13;5028648;28;20196;-66
2023/07/05 03:25:09;;;;;;;3.30;2.37;;;;;;;17.35;100.00;99758.28;5025340;28;20210;-65
2023/07/05 03:27:36;;;;;;;5.43;2.37;;;;;;;17.37;100.00;99756.44;5026746;28;20204;-67
2023/07/05 03:30:02;;;;;;;2.80;2.03;;;;;;;17.32;100.00;99751.22;5027795;28;20223;-66
2023/07/05 03:32:29;;;;;;;3.73;2.37;;;;;;;17.30;100.00;99753.03;5030614;28;20223;-66
2023/07/05 03:34:56;;;;;;;3.47;2.00;;;;;;;17.28;100.00;99746.84;5023414;28;20219;-66
2023/07/05 03:37:28;;;;;;;4.10;2.50;;;;;;;17.21;100.00;99755.91;5028115;28;20210;-67
2023/07/05 03:39:55;;;;;;;3.53;2.17;;;;;;;17.18;100.00;99740.81;5026060;28;20354;-66
2023/07/05 03:42:21;;;;;;;3.80;2.40;;;;;;;17.18;100.00;99742.59;5026684;28;20609;-66
2023/07/05 03:44:47;;;;;;;2.87;2.17;;;;;;;17.19;100.00;99742.56;5021059;28;20215;-67
2023/07/05 03:47:14;;;;;;;3.47;2.00;;;;;;;17.21;100.00;99748.78;5028147;28;20203;-66
2023/07/05 03:49:40;;;;;;;3.30;2.03;;;;;;;17.32;100.00;99735.16;5028210;28;20196;-66
2023/07/05 03:52:07;;;;;;;4.10;2.50;;;;;;;17.39;100.00;99738.53;5025731;28;20679;-65
2023/07/05 03:54:33;;;;;;;3.77;2.37;;;;;;;17.48;100.00;99739.19;5033127;23;20264;-70
2023/07/05 03:56:59;;;;;;;4.57;2.20;;;;;;;17.60;100.00;99745.16;5016537;28;20195;-70
2023/07/05 03:59:26;;;;;;;3.77;2.30;;;;;;;17.70;100.00;99739.56;5009167;28;20204;-69
2023/07/05 04:01:52;;;;;;;4.73;2.00;;;;;;;17.81;100.00;99740.16;5017113;28;20298;-70
2023/07/05 04:04:19;;;;;;;2.57;2.20;;;;;;;17.94;100.00;99732.66;5009698;28;20227;-70
2023/07/05 04:06:45;;;;;;;3.83;2.23;;;;;;;17.99;100.00;99724.50;5014653;28;20200;-70
2023/07/05 04:09:11;;;;;;;2.87;2.00;;;;;;;18.12;100.00;99729.50;5006392;28;20205;-69
2023/07/05 04:11:38;;;;;;;2.80;1.70;;;;;;;18.17;100.00;99732.03;5007443;28;20222;-69
2023/07/05 04:14:04;;;;;;;2.77;2.00;;;;;;;18.19;100.00;99718.59;5005168;28;20227;-70
2023/07/05 04:16:31;;;;;;;7.43;2.00;;;;;;;18.20;100.00;99720.34;5012900;28;20212;-69
2023/07/05 04:18:58;;;;;;;4.10;2.00;;;;;;;18.19;100.00;99718.59;4992106;28;20200;-70
2023/07/05 04:21:27;;;;;;;5.80;2.87;;;;;;;18.19;100.00;99727.53;5015678;28;20196;-69
2023/07/05 04:23:54;;;;;;;3.27;1.90;;;;;;;18.23;100.00;99729.19;5008758;28;20220;-70
2023/07/05 04:26:24;;;;;;;3.37;2.07;;;;;;;18.26;100.00;99738.94;5005777;28;20290;-70
2023/07/05 04:28:51;;;;;;;2.17;1.80;;;;;;;18.20;100.00;99756.06;5015069;28;20206;-70
2023/07/05 04:31:23;;;;;;;2.57;2.07;;;;;;;18.19;100.00;99746.28;5012045;28;20223;-70
2023/07/05 04:33:50;;;;;;;4.37;2.20;;;;;;;18.12;100.00;99758.09;5008668;28;20219;-70
2023/07/05 04:36:17;;;;;;;4.53;2.07;;;;;;;18.06;100.00;99760.94;5006941;28;20215;-70
2023/07/05 04:38:46;;;;;;;2.20;1.97;;;;;;;18.06;100.00;99763.63;5014201;28;20656;-70
2023/07/05 04:41:13;;;;;;;4.23;2.30;;;;;;;18.02;100.00;99765.50;5013288;28;20262;-69
2023/07/05 04:43:39;;;;;;;4.03;2.43;;;;;;;18.04;100.00;99761.00;4999535;28;20634;-70
2023/07/05 04:46:06;;;;;;;3.00;2.30;;;;;;;18.16;100.00;99774.03;5006793;28;20201;-70
2023/07/05 04:48:32;;;;;;;4.63;2.30;;;;;;;18.31;100.00;99772.72;5010375;28;20200;-69
2023/07/05 04:50:58;;;;;;;3.33;2.23;;;;;;;18.49;100.00;99784.75;5013167;28;20722;-70
2023/07/05 04:53:27;;;;;;;11.20;3.50;;;;;;;18.64;100.00;99789.69;5008585;28;20193;-70
2023/07/05 04:55:56;;;;;;;3.80;2.30;;;;;;;18.70;100.00;99786.84;5013744;28;20246;-70
2023/07/05 04:58:23;;;;;;;4.73;2.40;;;;;;;18.84;100.00;99809.72;5006229;28;20215;-70
2023/07/05 05:00:50;;;;;;;2.77;2.17;;;;;;;19.03;100.00;99810.91;5006045;28;20196;-70
2023/07/05 05:03:19;;;;;;;4.37;2.17;;;;;;;19.06;100.00;99810.81;4987547;28;20227;-67
2023/07/05 05:05:50;;;;;;;2.07;1.60;;;;;;;19.07;100.00;99816.13;5006862;28;20196;-67
2023/07/05 05:08:19;;;;;;;4.83;2.00;;;;;;;18.96;100.00;99815.59;5007745;28;20657;-68
2023/07/05 05:10:53;;;;;;;2.93;2.07;;;;;;;18.82;100.00;99814.25;5005051;28;20692;-67
2023/07/05 05:13:21;;;;;;;4.63;2.20;;;;;;;18.73;100.00;99826.09;5007620;28;20775;-67
2023/07/05 05:15:48;;;;;;;4.30;2.20;;;;;;;18.74;100.00;99830.53;5006181;28;20274;-67
2023/07/05 05:18:16;;;;;;;2.60;1.90;;;;;;;18.75;100.00;99826.94;5008056;28;20195;-67
2023/07/05 05:20:43;;;;;;;3.30;1.90;;;;;;;18.63;100.00;99822.81;5002334;28;20287;-67
2023/07/05 05:23:09;;;;;;;2.97;1.90;;;;;;;18.63;100.00;99827.31;5006412;28;20684;-67
2023/07/05 05:25:42;;;;;;;2.70;2.10;;;;;;;18.50;100.00;99829.44;5008757;28;20204;-67
2023/07/05 05:28:09;;;;;;;2.47;1.90;;;;;;;18.36;100.00;99828.91;5006391;28;20208;-67
2023/07/05 05:30:36;;;;;;;4.57;2.13;;;;;;;18.30;100.00;99823.72;5004922;28;20248;-67
2023/07/05 05:33:03;;;;;;;2.57;1.80;;;;;;;18.26;100.00;99833.63;5008270;28;20200;-67
2023/07/05 05:35:31;;;;;;;3.10;2.10;;;;;;;18.30;100.00;99845.16;5004201;28;20687;-67
2023/07/05 05:37:58;;;;;;;3.97;1.90;;;;;;;18.38;100.00;99838.66;5002506;28;20214;-67
2023/07/05 05:40:24;;;;;;;2.67;1.80;;;;;;;18.37;97.22;99847.63;5005444;28;20658;-68
2023/07/05 05:42:51;;;;;;;3.43;1.87;;;;;;;18.43;96.45;99851.97;4895526;28;20336;-68
2023/07/05 05:45:17;;;;;;;3.10;2.03;;;;;;;18.69;95.23;99846.78;4885700;28;59710;-68
2023/07/05 05:47:44;;;;;;;3.23;1.93;;;;;;;18.66;91.57;99859.41;4946667;28;20202;-67
2023/07/05 05:50:10;;;;;;;3.10;1.83;;;;;;;18.57;93.02;99865.00;4946537;28;20208;-67
2023/07/05 05:52:36;;;;;;;2.57;1.80;;;;;;;18.59;90.99;99872.06;4946739;28;20309;-66
2023/07/05 05:55:03;;;;;;;4.97;3.23;;;;;;;18.66;89.97;99879.06;4943106;29;20234;-66
2023/07/05 05:57:30;;;;;;;3.03;2.20;;;;;;;18.85;89.32;99874.06;4947317;28;20224;-66
2023/07/05 05:59:56;;;;;;;3.70;2.10;;;;;;;18.86;88.00;99891.03;4945126;28;20200;-66
2023/07/05 06:02:23;;;;;;;3.60;2.10;;;;;;;18.70;89.62;99910.22;4950174;28;20289;-68
2023/07/05 06:04:49;;;;;;;3.93;2.30;;;;;;;18.44;90.05;99916.28;4935140;28;20225;-67
2023/07/05 06:07:16;;;;;;;3.97;2.73;;;;;;;18.32;86.61;99921.06;4937269;28;20205;-66
2023/07/05 06:09:45;;;;;;;5.07;2.60;;;;;;;18.11;85.47;99923.38;4952084;29;20201;-66
2023/07/05 06:12:12;;;;;;;6.43;3.00;;;;;;;18.02;84.92;99920.94;4953181;29;20225;-66
2023/07/05 06:14:41;;;;;;;7.17;3.23;;;;;;;17.98;86.09;99921.91;4951896;29;20717;-66
2023/07/05 06:17:07;;;;;;;5.70;3.53;;;;;;;17.84;84.30;99935.63;4952282;29;20305;-66
2023/07/05 06:19:33;;;;;;;4.67;3.00;;;;;;;17.70;85.50;99936.88;4952304;28;20221;-66
2023/07/05 06:22:00;;;;;;;7.23;3.63;;;;;;;17.85;85.80;99945.44;4951608;29;20198;-66
2023/07/05 06:24:26;;;;;;;5.87;3.50;;;;;;;17.78;85.79;99957.22;4951046;29;20221;-65
2023/07/05 06:26:53;;;;;;;5.23;2.83;;;;;;;17.87;85.39;99950.75;4952521;29;20213;-65
2023/07/05 06:29:19;;;;;;;5.17;3.20;;;;;;;17.97;83.86;99960.31;4951289;29;20202;-65
2023/07/05 06:31:45;;;;;;;5.97;3.40;;;;;;;18.30;82.78;99963.13;4950774;29;20250;-65
2023/07/05 06:34:12;;;;;;;5.60;3.20;;;;;;;18.46;81.14;99962.72;4947777;29;20222;-65
2023/07/05 06:36:38;;;;;;;5.90;3.50;;;;;;;18.68;78.67;99964.84;4952408;29;20580;-65
2023/07/05 06:39:05;;;;;;;4.77;3.37;;;;;;;18.87;77.56;99970.63;4927767;29;20697;-65
2023/07/05 06:41:31;;;;;;;6.47;3.27;;;;;;;19.32;76.28;99968.44;4949731;29;20194;-65
2023/07/05 06:43:57;;;;;;;7.50;3.03;;;;;;;19.46;76.02;99984.16;4952280;29;20728;-65
2023/07/05 06:46:24;;;;;;;6.57;3.50;;;;;;;19.39;68.97;99978.97;4952786;29;20275;-68
2023/07/05 06:48:50;;;;;;;5.67;3.23;;;;;;;19.02;66.49;99976.44;4950190;29;20202;-68
2023/07/05 06:51:17;;;;;;;8.73;2.97;;;;;;;18.82;66.68;99989.53;4942736;29;20309;-68
2023/07/05 06:53:44;;;;;;;6.47;3.00;;;;;;;18.73;66.50;100005.84;4950947;29;20229;-68
2023/07/05 06:56:15;;;;;;;7.60;4.00;;;;;;;18.71;64.67;99995.16;4951328;29;20205;-65
2023/07/05 06:58:42;;;;;;;4.93;2.83;;;;;;;18.95;64.06;99998.13;4947560;29;20269;-66
2023/07/05 07:01:08;;;;;;;4.57;2.87;;;;;;;18.83;61.33;99999.34;4952281;29;20202;-66
2023/07/05 07:03:37;;;;;;;7.33;2.90;;;;;;;19.36;60.01;100013.09;4949507;29;20222;-65
2023/07/05 07:06:04;;;;;;;5.37;2.97;;;;;;;19.26;59.62;100017.84;4946932;29;20206;-66
2023/07/05 07:08:33;;;;;;;3.53;2.47;;;;;;;20.16;55.82;100019.66;4949692;29;20202;-66
2023/07/05 07:11:01;;;;;;;5.67;2.70;;;;;;;20.97;52.24;100025.94;4947638;28;20309;-66
2023/07/05 07:13:28;;;;;;;5.20;2.70;;;;;;;21.81;49.51;100015.69;4950352;28;20321;-66
2023/07/05 07:16:09;;;;;;;6.90;2.70;;;;;;;23.62;44.87;100031.50;4950893;29;20202;-66
2023/07/05 07:18:37;;;;;;;6.90;3.10;;;;;;;24.59;41.88;100014.25;4949999;29;20208;-66
2023/07/05 07:21:11;;;;;;;3.93;2.47;;;;;;;24.33;43.79;100042.59;4935133;29;20198;-66
2023/07/05 07:23:39;;;;;;;5.33;2.90;;;;;;;23.20;45.53;100039.66;4948167;29;20214;-65
2023/07/05 07:26:11;;;;;;;4.10;2.80;;;;;;;22.39;47.12;100048.44;4949658;29;20448;-65
2023/07/05 07:28:37;;;;;;;4.77;2.60;;;;;;;22.05;49.78;100061.56;4951928;29;20201;-65
2023/07/05 07:31:13;;;;;;;5.05;2.75;;;;;;;22.38;47.99;100059.31;4951513;29;20309;-65
2023/07/05 07:33:40;;;;;;;7.70;3.10;;;;;;;21.69;48.49;100067.38;4950209;29;20335;-65
2023/07/05 07:36:18;;;;;;;6.50;3.00;;;;;;;21.15;51.05;100079.16;4951038;29;20230;-66
2023/07/05 07:38:45;;;;;;;7.67;3.00;;;;;;;20.05;54.96;100076.47;4951114;29;20198;-65
2023/07/05 07:41:23;;;;;;;5.00;2.57;;;;;;;19.47;56.88;100107.66;4949445;29;20213;-65
2023/07/05 07:43:54;;;;;;;3.20;2.27;;;;;;;19.22;56.66;100094.03;4951624;29;20313;-65
2023/07/05 07:46:23;;;;;;;4.93;2.47;;;;;;;18.82;55.61;100101.34;4949916;29;20226;-65
2023/07/05 07:48:52;;;;;;;3.83;1.93;;;;;;;20.21;51.25;100088.50;4949526;29;20264;-67
2023/07/05 07:51:21;;;;;;;6.20;1.80;;;;;;;20.82;47.27;100085.72;4950353;29;20226;-66
2023/07/05 07:54:06;;;;;;;5.03;2.40;;;;;;;20.63;48.12;100096.19;4947830;29;20226;-65
2023/07/05 07:56:32;;;;;;;4.30;2.30;;;;;;;20.87;46.87;100107.97;4946971;29;20636;-65
2023/07/05 07:59:00;;;;;;;7.03;2.30;;;;;;;22.83;43.01;100104.34;4961985;28;20300;-65
2023/07/05 08:01:27;;;;;;;9.10;2.13;;;;;;;22.70;43.45;100107.47;4955438;28;20203;-65
2023/07/05 08:03:56;;;;;;;3.63;2.17;;;;;;;22.34;44.19;100107.13;4950476;29;20218;-65
2023/07/05 08:06:50;;;;;;;4.37;2.17;;;;;;;23.14;42.88;100131.78;4946357;29;20202;-65
2023/07/05 08:09:28;;;;;;;4.70;2.57;;;;;;;23.11;42.35;100122.00;4949896;29;20234;-64
2023/07/05 08:11:56;;;;;;;4.40;1.93;;;;;;;22.22;43.86;100125.63;4950149;29;20773;-65
2023/07/05 08:14:22;;;;;;;3.80;2.10;;;;;;;22.72;43.70;100135.28;4950033;29;20214;-65
2023/07/05 08:16:49;;;;;;;4.10;2.23;;;;;;;21.98;44.67;100135.47;4948837;29;20421;-65
2023/07/05 08:19:16;;;;;;;4.30;1.90;;;;;;;21.01;46.90;100142.50;4953025;28;20266;-65
2023/07/05 08:21:44;;;;;;;5.13;2.00;;;;;;;20.32;48.22;100137.47;4957776;28;20202;-65
2023/07/05 08:24:11;;;;;;;3.17;1.73;;;;;;;20.82;47.22;100135.03;4949976;28;20222;-65
2023/07/05 08:26:54;;;;;;;5.03;1.70;;;;;;;20.66;47.45;100136.44;4948649;28;20198;-65
2023/07/05 08:29:20;;;;;;;4.20;1.70;;;;;;;20.63;48.15;100136.53;4950794;29;20224;-65
2023/07/05 08:31:47;;;;;;;5.90;2.20;;;;;;;21.53;45.76;100145.19;4949916;29;20275;-65
2023/07/05 08:34:15;;;;;;;2.80;1.67;;;;;;;21.76;44.74;100143.50;4948392;29;20694;-64
2023/07/05 08:36:42;;;;;;;2.57;1.60;;;;;;;20.88;46.38;100136.66;4948054;28;20208;-65
2023/07/05 08:39:11;;;;;;;3.83;2.23;;;;;;;20.68;47.42;100144.47;4946870;28;20353;-65
2023/07/05 08:41:46;;;;;;;3.47;1.90;;;;;;;20.64;47.48;100139.19;4950047;29;20201;-65
2023/07/05 08:44:31;;;;;;;2.80;1.60;;;;;;;21.27;45.68;100142.53;4950006;29;20217;-65
2023/07/05 08:46:59;;;;;;;2.93;1.50;;;;;;;20.91;47.27;100147.31;4944470;29;20229;-65
2023/07/05 08:49:43;;;;;;;3.10;1.90;;;;;;;20.68;48.68;100163.31;4948049;29;20206;-64
2023/07/05 08:52:21;;;;;;;2.57;1.40;;;;;;;20.54;47.76;100163.75;4948049;29;20648;-65
2023/07/05 08:54:53;;;;;;;3.47;1.50;;;;;;;20.76;47.75;100153.16;4950129;29;20221;-66
2023/07/05 08:57:25;;;;;;;4.43;1.73;;;;;;;20.30;48.47;100157.25;4945389;29;20202;-65
2023/07/05 09:00:11;;;;;;;3.03;1.50;;;;;;;20.34;48.73;100157.13;4948668;29;20206;-66
2023/07/05 09:02:38;;;;;;;4.43;1.60;;;;;;;20.64;48.69;100171.47;4944892;29;20195;-66
2023/07/05 09:05:16;;;;;;;3.93;1.70;;;;;;;20.44;48.53;100168.53;4948710;29;20222;-66
2023/07/05 09:07:55;;;;;;;4.37;1.37;;;;;;;20.19;48.94;100171.03;4947826;29;20285;-66
2023/07/05 09:10:46;;;;;;;2.17;1.20;;;;;;;20.31;48.92;100175.16;4949491;29;20210;-65
2023/07/05 09:13:27;;;;;;;2.43;1.30;;;;;;;20.14;49.63;100172.09;4945084;29;20234;-65
2023/07/05 09:16:05;;;;;;;1.73;1.30;;;;;;;20.39;49.23;100189.25;4949220;29;20214;-65
2023/07/05 09:18:50;;;;;;;2.80;1.40;;;;;;;20.40;49.53;100182.09;4946900;29;20206;-66
2023/07/05 09:21:41;;;;;;;3.93;1.40;;;;;;;21.02;47.71;100187.34;4948672;29;20205;-66
2023/07/05 09:24:19;;;;;;;4.90;1.70;;;;;;;20.56;47.50;100187.00;4948151;29;20243;-65
2023/07/05 09:26:53;;;;;;;2.43;1.20;;;;;;;21.02;47.64;100182.84;4949854;29;20202;-65
2023/07/05 09:29:41;;;;;;;4.57;1.40;;;;;;;21.84;46.58;100176.44;4949306;29;20202;-65
2023/07/05 09:32:12;;;;;;;5.30;1.40;;;;;;;21.72;44.78;100185.88;4941500;29;20229;-65
2023/07/05 09:34:45;;;;;;;2.80;1.50;;;;;;;21.21;45.11;100194.78;4948736;28;21512;-65
2023/07/05 09:37:16;;;;;;;3.72;1.02;;;;;;;20.61;45.75;100200.28;4948332;29;20202;-65
2023/07/05 09:39:48;;;;;;;4.35;1.50;;;;;;;21.30;45.41;100208.91;4949476;29;20194;-67
2023/07/05 09:42:47;;;;;;;2.05;1.20;;;;;;;20.78;46.28;100214.09;4955942;28;20198;-66
2023/07/05 09:45:16;;;;;;;1.83;1.27;;;;;;;20.63;46.96;100210.09;4926076;29;20217;-67
2023/07/05 09:47:45;;;;;;;3.37;1.60;;;;;;;20.52;48.01;100211.34;4947694;29;20202;-66
2023/07/05 09:50:18;;;;;;;1.27;1.13;;;;;;;21.37;45.67;100216.72;4948227;29;20202;-68
2023/07/05 09:52:47;;;;;;;2.30;1.50;;;;;;;21.74;45.07;100231.63;4946516;29;20222;-67
2023/07/05 09:55:16;;;;;;;1.95;1.15;;;;;;;21.86;45.83;100229.38;4950303;29;20252;-67
2023/07/05 09:57:42;;;;;;;2.85;1.20;;;;;;;21.38;44.87;100229.25;4949230;29;20659;-67
2023/07/05 10:00:35;;;;;;;2.85;1.25;;;;;;;21.23;44.96;100227.97;4947955;29;20202;-67
2023/07/05 10:03:21;;;;;;;3.85;1.35;;;;;;;21.94;44.20;100236.31;4947683;28;20253;-69
2023/07/05 10:05:53;;;;;;;2.75;1.48;;;;;;;22.17;43.49;100242.69;4950656;29;20725;-69
2023/07/05 10:08:21;;;;;;;3.03;1.60;;;;;;;22.46;42.62;100238.91;4949461;29;20269;-69
2023/07/05 10:10:48;;;;;;;2.70;1.50;;;;;;;22.33;42.87;100234.88;4950642;29;20627;-69
2023/07/05 10:13:19;;;;;;;5.63;1.42;;;;;;;21.54;44.16;100249.34;4951538;29;20228;-69
2023/07/05 10:15:48;;;;;;;2.20;1.30;;;;;;;22.18;43.50;100241.75;4951893;29;20198;-70
2023/07/05 10:18:30;;;;;;;4.28;1.35;;;;;;;22.63;41.79;100238.25;4949538;29;20210;-69
2023/07/05 10:21:09;;;;;;;3.40;1.33;;;;;;;22.50;43.07;100239.69;4953992;28;20589;-69
2023/07/05 10:23:35;;;;;;;2.17;1.70;;;;;;;22.41;43.21;100250.78;4944544;29;20214;-66
2023/07/05 10:26:05;;;;;;;2.85;1.60;;;;;;;22.52;42.32;100256.69;4948191;29;20198;-66
2023/07/05 10:28:35;;;;;;;4.57;1.33;;;;;;;22.66;42.55;100239.97;4947464;29;20213;-66
2023/07/05 10:31:07;;;;;;;2.50;1.20;;;;;;;22.72;42.19;100248.69;4948197;29;20202;-66
2023/07/05 10:33:36;;;;;;;2.42;1.30;;;;;;;23.06;40.55;100242.88;4948444;29;20667;-66
2023/07/05 10:36:13;;;;;;;1.67;1.20;;;;;;;23.12;40.87;100260.66;4958563;28;20201;-66
2023/07/05 10:38:40;;;;;;;4.00;1.52;;;;;;;22.81;40.41;100266.38;4945013;29;20198;-66
2023/07/05 10:41:35;;;;;;;2.42;1.33;;;;;;;23.25;40.73;100253.84;4944083;29;20289;-66
2023/07/05 10:44:05;;;;;;;1.77;1.13;;;;;;;23.51;39.68;100265.38;4948959;29;20218;-67
2023/07/05 10:46:35;;;;;;;2.08;1.20;;;;;;;23.02;39.96;100256.56;4949365;28;20204;-66
2023/07/05 10:49:09;;;;;;;4.45;1.25;;;;;;;22.01;42.49;100262.13;4954632;28;20289;-66
2023/07/05 10:51:40;;;;;;;2.38;1.20;;;;;;;22.31;42.92;100262.88;4952947;28;20346;-67
2023/07/05 10:54:22;;;;;;;5.93;1.35;;;;;;;21.88;42.33;100251.78;4948732;28;20255;-66
2023/07/05 10:56:49;;;;;;;3.55;1.40;;;;;;;21.98;43.07;100257.72;4950926;28;20600;-66
2023/07/05 10:59:35;;;;;;;2.58;1.60;;;;;;;21.97;43.37;100255.06;4941757;28;20805;-67
2023/07/05 11:02:48;;;;;;;3.10;1.30;;;;;;;22.07;42.86;100248.47;4951044;29;20288;-64
2023/07/05 11:05:23;;;;;;;2.33;1.58;;;;;;;21.37;43.00;100258.94;4950452;29;20305;-64
2023/07/05 11:11:15;;;;;;;2.55;1.30;;;;;;;21.19;43.79;100255.88;4951062;29;20202;-64
2023/07/05 11:13:45;;;;;;;2.10;1.20;;;;;;;21.86;43.91;100250.94;4950238;29;20222;-64
2023/07/05 11:16:17;;;;;;;1.20;1.10;;;;;;;21.85;43.01;100256.41;4952062;29;22102;-64
2023/07/05 11:18:45;;;;;;;4.00;1.60;;;;;;;22.09;41.80;100252.00;4950903;29;20257;-64
2023/07/05 11:21:38;;;;;;;2.25;1.45;;;;;;;22.39;39.81;100274.25;4947929;29;20582;-65
2023/07/05 11:24:09;;;;;;;3.28;1.60;;;;;;;21.85;39.84;100268.06;4950675;29;20225;-64
2023/07/05 11:26:41;;;;;;;3.88;1.50;;;;;;;21.71;40.66;100256.88;4949996;29;20591;-65
2023/07/05 11:29:26;;;;;;;3.75;1.30;;;;;;;22.14;41.28;100258.09;4949251;29;20210;-65
2023/07/05 11:31:53;;;;;;;3.47;1.40;;;;;;;22.02;39.85;100269.31;4949576;29;20202;-64
2023/07/05 11:34:23;;;;;;;5.60;1.67;;;;;;;22.04;39.41;100271.03;4949702;29;20218;-65
2023/07/05 11:37:01;;;;;;;5.57;1.25;;;;;;;22.16;40.43;100262.50;4947875;29;20281;-64
2023/07/05 11:39:45;;;;;;;1.90;1.48;;;;;;;21.89;41.15;100274.22;4952222;29;20579;-64
2023/07/05 11:42:12;;;;;;;2.65;1.52;;;;;;;22.01;40.18;100268.38;4947653;29;20194;-64
2023/07/05 11:44:45;;;;;;;4.85;1.55;;;;;;;22.10;40.04;100262.72;4949335;28;20218;-65